createdAt,value
2019-05-25T00:00:53.026Z,15.94
2019-05-25T00:01:53.003Z,15.95
2019-05-25T00:02:53.015Z,15.75
2019-05-25T00:03:52.975Z,15.75
2019-05-25T00:04:52.967Z,15.75
2019-05-25T00:05:52.960Z,15.82
2019-05-25T00:06:52.941Z,15.73
2019-05-25T00:07:52.945Z,15.75
2019-05-25T00:08:52.934Z,15.59
2019-05-25T00:09:52.917Z,15.65
2019-05-25T00:10:52.904Z,15.47
2019-05-25T00:11:52.898Z,15.51
2019-05-25T00:12:52.876Z,15.51
2019-05-25T00:13:52.883Z,15.43
2019-05-25T00:14:52.859Z,15.46
2019-05-25T00:15:52.842Z,15.42
2019-05-25T00:16:52.833Z,15.39
2019-05-25T00:17:52.823Z,15.35
2019-05-25T00:18:52.846Z,15.31
2019-05-25T00:19:52.811Z,15.21
2019-05-25T00:20:52.806Z,15.14
2019-05-25T00:21:52.779Z,15.19
2019-05-25T00:22:52.772Z,15.18
2019-05-25T00:23:52.769Z,15.19
2019-05-25T00:24:52.755Z,15.22
2019-05-25T00:25:52.736Z,15.17
2019-05-25T00:26:52.740Z,15.15
2019-05-25T00:27:52.714Z,15.04
2019-05-25T00:28:52.708Z,15.02
2019-05-25T00:29:52.723Z,14.97
2019-05-25T00:30:52.687Z,15.00
2019-05-25T00:31:52.696Z,14.89
2019-05-25T00:32:52.666Z,15.03
2019-05-25T00:33:52.654Z,14.99
2019-05-25T00:34:52.645Z,14.89
2019-05-25T00:35:52.636Z,14.96
2019-05-25T00:36:52.621Z,14.94
2019-05-25T00:37:52.614Z,14.92
2019-05-25T00:38:52.601Z,14.88
2019-05-25T00:39:52.584Z,14.84
2019-05-25T00:40:52.586Z,14.73
2019-05-25T00:41:52.566Z,14.78
2019-05-25T00:42:52.553Z,14.66
2019-05-25T00:43:52.550Z,14.65
2019-05-25T00:44:52.552Z,14.53
2019-05-25T00:45:52.533Z,14.63
2019-05-25T00:46:52.517Z,14.54
2019-05-25T00:47:52.512Z,14.48
2019-05-25T00:48:52.501Z,14.48
2019-05-25T00:49:52.479Z,14.37
2019-05-25T00:50:52.474Z,14.40
2019-05-25T00:51:52.468Z,14.40
2019-05-25T00:52:52.459Z,14.23
2019-05-25T00:53:52.440Z,14.26
2019-05-25T00:54:52.454Z,14.22
2019-05-25T00:55:52.416Z,14.15
2019-05-25T00:56:52.435Z,14.15
2019-05-25T00:57:52.396Z,14.15
2019-05-25T00:58:52.388Z,14.10
2019-05-25T00:59:52.371Z,14.08
2019-05-25T01:00:52.370Z,14.03
2019-05-25T01:01:52.348Z,14.07
2019-05-25T01:02:52.354Z,13.97
2019-05-25T01:03:52.324Z,14.07
2019-05-25T01:04:52.319Z,13.93
2019-05-25T01:05:52.304Z,13.89
2019-05-25T01:06:52.294Z,13.97
2019-05-25T01:07:52.313Z,13.87
2019-05-25T01:08:52.322Z,13.85
2019-05-25T01:09:52.262Z,13.75
2019-05-25T01:10:52.250Z,13.81
2019-05-25T01:11:52.238Z,13.65
2019-05-25T01:12:52.241Z,13.68
2019-05-25T01:13:52.233Z,13.63
2019-05-25T01:14:52.210Z,13.65
2019-05-25T01:15:52.206Z,13.56
2019-05-25T01:16:52.200Z,13.53
2019-05-25T01:17:52.240Z,13.44
2019-05-25T01:18:52.162Z,13.46
2019-05-25T01:19:52.157Z,13.38
2019-05-25T01:20:52.149Z,13.23
2019-05-25T01:21:52.154Z,13.37
2019-05-25T01:22:52.123Z,13.30
2019-05-25T01:23:52.118Z,13.27
2019-05-25T01:24:52.092Z,13.30
2019-05-25T01:25:52.095Z,13.19
2019-05-25T01:26:52.076Z,13.16
2019-05-25T01:27:52.060Z,13.09
2019-05-25T01:28:52.059Z,13.12
2019-05-25T01:29:52.037Z,13.04
2019-05-25T01:30:52.052Z,13.03
2019-05-25T01:31:52.018Z,13.05
2019-05-25T01:32:52.006Z,13.04
2019-05-25T01:33:51.992Z,12.98
2019-05-25T01:34:51.995Z,12.98
2019-05-25T01:35:51.984Z,12.90
2019-05-25T01:36:51.962Z,12.94
2019-05-25T01:37:51.949Z,12.87
2019-05-25T01:38:51.940Z,12.85
2019-05-25T01:39:51.948Z,12.78
2019-05-25T01:40:51.924Z,12.82
2019-05-25T01:41:51.914Z,12.79
2019-05-25T01:42:51.896Z,12.80
2019-05-25T01:43:51.893Z,12.79
2019-05-25T01:44:51.889Z,12.80
2019-05-25T01:45:51.866Z,12.80
2019-05-25T01:46:51.849Z,12.70
2019-05-25T01:47:51.846Z,12.76
2019-05-25T01:48:51.837Z,12.75
2019-05-25T01:49:51.822Z,12.75
2019-05-25T01:50:51.828Z,12.76
2019-05-25T01:51:51.809Z,12.85
2019-05-25T01:52:51.787Z,12.91
2019-05-25T01:53:51.817Z,12.97
2019-05-25T01:55:00.027Z,13.00
2019-05-25T01:55:52.764Z,12.98
2019-05-25T01:56:51.751Z,12.93
2019-05-25T01:57:51.738Z,12.86
2019-05-25T01:58:51.723Z,12.83
2019-05-25T01:59:51.729Z,12.80
2019-05-25T02:00:51.729Z,12.70
2019-05-25T02:01:51.697Z,12.61
2019-05-25T02:02:51.673Z,12.58
2019-05-25T02:03:51.667Z,12.46
2019-05-25T02:04:51.657Z,12.50
2019-05-25T02:05:51.706Z,12.50
2019-05-25T02:06:51.654Z,12.46
2019-05-25T02:07:51.630Z,12.50
2019-05-25T02:08:51.647Z,12.53
2019-05-25T02:09:51.601Z,12.49
2019-05-25T02:10:51.592Z,12.58
2019-05-25T02:11:51.581Z,12.58
2019-05-25T02:12:51.568Z,12.58
2019-05-25T02:13:51.559Z,12.60
2019-05-25T02:14:51.564Z,12.64
2019-05-25T02:15:51.536Z,12.65
2019-05-25T02:16:51.523Z,12.61
2019-05-25T02:17:51.521Z,12.62
2019-05-25T02:18:51.499Z,12.68
2019-05-25T02:19:51.515Z,12.73
2019-05-25T02:20:51.477Z,12.70
2019-05-25T02:21:51.479Z,12.68
2019-05-25T02:22:51.468Z,12.62
2019-05-25T02:23:51.452Z,12.67
2019-05-25T02:24:51.496Z,12.76
2019-05-25T02:25:51.424Z,12.60
2019-05-25T02:26:51.434Z,12.65
2019-05-25T02:27:51.445Z,12.61
2019-05-25T02:28:51.424Z,12.54
2019-05-25T02:29:51.376Z,12.64
2019-05-25T02:30:51.373Z,12.61
2019-05-25T02:31:51.366Z,12.64
2019-05-25T02:32:51.361Z,12.64
2019-05-25T02:33:51.343Z,12.65
2019-05-25T02:34:51.327Z,12.54
2019-05-25T02:35:51.315Z,12.46
2019-05-25T02:36:51.308Z,12.53
2019-05-25T02:37:51.303Z,12.50
2019-05-25T02:38:51.299Z,12.45
2019-05-25T02:39:51.270Z,12.42
2019-05-25T02:40:51.258Z,12.45
2019-05-25T02:41:51.257Z,12.46
2019-05-25T02:42:51.261Z,12.40
2019-05-25T02:43:51.227Z,12.37
2019-05-25T02:44:51.229Z,12.36
2019-05-25T02:45:51.209Z,12.27
2019-05-25T02:46:51.197Z,12.18
2019-05-25T02:47:51.185Z,12.22
2019-05-25T02:48:51.202Z,12.22
2019-05-25T02:49:51.186Z,12.17
2019-05-25T02:50:53.022Z,12.15
2019-05-25T02:51:51.135Z,12.22
2019-05-25T02:52:51.131Z,12.21
2019-05-25T02:53:51.128Z,12.20
2019-05-25T02:54:51.105Z,12.20
2019-05-25T02:55:51.105Z,12.15
2019-05-25T02:56:51.090Z,12.21
2019-05-25T02:57:51.080Z,12.10
2019-05-25T02:58:51.072Z,12.13
2019-05-25T02:59:51.053Z,12.27
2019-05-25T03:00:51.040Z,12.22
2019-05-25T03:01:51.025Z,12.24
2019-05-25T03:02:51.013Z,12.28
2019-05-25T03:03:51.016Z,12.24
2019-05-25T03:04:50.997Z,12.27
2019-05-25T03:05:51.029Z,12.25
2019-05-25T03:06:50.975Z,12.29
2019-05-25T03:07:50.959Z,12.25
2019-05-25T03:08:50.962Z,12.17
2019-05-25T03:09:50.944Z,12.24
2019-05-25T03:10:51.015Z,12.25
2019-05-25T03:11:50.927Z,12.18
2019-05-25T03:12:50.903Z,12.13
2019-05-25T03:13:50.898Z,12.13
2019-05-25T03:14:50.887Z,12.22
2019-05-25T03:15:50.886Z,12.03
2019-05-25T03:16:50.870Z,12.12
2019-05-25T03:17:50.852Z,12.10
2019-05-25T03:18:50.846Z,12.13
2019-05-25T03:19:50.828Z,12.10
2019-05-25T03:20:50.839Z,12.09
2019-05-25T03:21:50.805Z,11.97
2019-05-25T03:22:50.793Z,11.99
2019-05-25T03:23:50.791Z,12.03
2019-05-25T03:24:50.773Z,11.94
2019-05-25T03:25:50.768Z,11.86
2019-05-25T03:26:50.763Z,11.97
2019-05-25T03:27:50.747Z,11.86
2019-05-25T03:28:50.729Z,11.84
2019-05-25T03:29:50.726Z,11.75
2019-05-25T03:30:50.719Z,11.77
2019-05-25T03:31:50.711Z,11.83
2019-05-25T03:32:50.695Z,11.69
2019-05-25T03:33:50.690Z,11.70
2019-05-25T03:34:50.662Z,11.69
2019-05-25T03:35:50.651Z,11.66
2019-05-25T03:36:50.642Z,11.60
2019-05-25T03:37:50.643Z,11.54
2019-05-25T03:38:50.626Z,11.52
2019-05-25T03:39:50.605Z,11.41
2019-05-25T03:40:50.596Z,11.48
2019-05-25T03:41:50.612Z,11.40
2019-05-25T03:42:50.612Z,11.37
2019-05-25T03:43:50.561Z,11.41
2019-05-25T03:44:50.553Z,11.35
2019-05-25T03:45:50.545Z,11.33
2019-05-25T03:46:50.528Z,11.26
2019-05-25T03:47:50.515Z,11.37
2019-05-25T03:48:50.519Z,11.27
2019-05-25T03:49:50.501Z,11.27
2019-05-25T03:50:50.488Z,11.30
2019-05-25T03:51:50.473Z,11.35
2019-05-25T03:52:50.465Z,11.26
2019-05-25T03:53:50.461Z,11.30
2019-05-25T03:54:50.488Z,11.35
2019-05-25T03:56:04.795Z,11.37
2019-05-25T03:56:51.415Z,11.41
2019-05-25T03:57:50.411Z,11.33
2019-05-25T03:58:50.400Z,11.35
2019-05-25T03:59:50.395Z,11.33
2019-05-25T04:00:50.391Z,11.30
2019-05-25T04:01:50.367Z,11.27
2019-05-25T04:02:50.378Z,11.32
2019-05-25T04:03:50.343Z,11.45
2019-05-25T04:04:50.360Z,11.43
2019-05-25T04:05:50.332Z,11.44
2019-05-25T04:06:50.315Z,11.50
2019-05-25T04:07:50.329Z,11.55
2019-05-25T04:08:50.301Z,11.55
2019-05-25T04:09:50.276Z,11.68
2019-05-25T04:10:50.277Z,11.69
2019-05-25T04:11:50.253Z,11.70
2019-05-25T04:12:50.237Z,11.80
2019-05-25T04:13:50.247Z,11.83
2019-05-25T04:14:50.223Z,11.83
2019-05-25T04:15:50.224Z,11.95
2019-05-25T04:16:50.199Z,12.00
2019-05-25T04:17:50.208Z,12.02
2019-05-25T04:18:50.177Z,12.12
2019-05-25T04:19:50.164Z,12.21
2019-05-25T04:20:50.168Z,12.32
2019-05-25T04:21:50.145Z,12.32
2019-05-25T04:22:50.134Z,12.39
2019-05-25T04:23:50.119Z,12.39
2019-05-25T04:24:50.113Z,12.42
2019-05-25T04:25:50.137Z,12.43
2019-05-25T04:26:50.103Z,12.43
2019-05-25T04:27:50.079Z,12.45
2019-05-25T04:28:50.072Z,12.43
2019-05-25T04:29:50.057Z,12.46
2019-05-25T04:30:50.043Z,12.47
2019-05-25T04:31:50.042Z,12.53
2019-05-25T04:32:50.022Z,12.47
2019-05-25T04:33:50.017Z,12.50
2019-05-25T04:34:49.998Z,12.58
2019-05-25T04:35:49.988Z,12.61
2019-05-25T04:36:49.991Z,12.64
2019-05-25T04:37:49.989Z,12.57
2019-05-25T04:38:49.990Z,12.62
2019-05-25T04:39:49.956Z,12.61
2019-05-25T04:40:49.937Z,12.64
2019-05-25T04:41:49.926Z,12.62
2019-05-25T04:42:49.927Z,12.62
2019-05-25T04:43:49.908Z,12.54
2019-05-25T04:44:49.894Z,12.61
2019-05-25T04:45:49.884Z,12.73
2019-05-25T04:46:49.866Z,12.60
2019-05-25T04:47:49.871Z,12.61
2019-05-25T04:48:49.848Z,12.57
2019-05-25T04:49:49.841Z,12.45
2019-05-25T04:50:49.829Z,12.55
2019-05-25T04:51:49.811Z,12.53
2019-05-25T04:52:49.810Z,12.54
2019-05-25T04:53:49.812Z,12.47
2019-05-25T04:54:49.788Z,12.43
2019-05-25T04:55:49.767Z,12.36
2019-05-25T04:56:49.767Z,12.47
2019-05-25T04:57:49.762Z,12.40
2019-05-25T04:58:49.788Z,12.42
2019-05-25T04:59:49.727Z,12.40
2019-05-25T05:00:49.718Z,12.45
2019-05-25T05:01:49.717Z,12.45
2019-05-25T05:02:49.707Z,12.40
2019-05-25T05:03:49.703Z,12.46
2019-05-25T05:04:49.669Z,12.39
2019-05-25T05:05:49.664Z,12.47
2019-05-25T05:06:49.834Z,12.35
2019-05-25T05:07:49.722Z,12.49
2019-05-25T05:08:49.644Z,12.42
2019-05-25T05:10:01.676Z,12.46
2019-05-25T05:10:50.611Z,12.49
2019-05-25T05:11:49.599Z,12.54
2019-05-25T05:12:49.625Z,12.53
2019-05-25T05:13:49.573Z,12.61
2019-05-25T05:14:49.578Z,12.47
2019-05-25T05:15:49.549Z,12.49
2019-05-25T05:16:49.544Z,12.57
2019-05-25T05:17:49.536Z,12.54
2019-05-25T05:18:49.522Z,12.49
2019-05-25T05:19:49.530Z,12.49
2019-05-25T05:20:49.513Z,12.54
2019-05-25T05:21:49.488Z,12.47
2019-05-25T05:22:49.479Z,12.61
2019-05-25T05:23:49.498Z,12.61
2019-05-25T05:24:49.454Z,12.60
2019-05-25T05:25:49.441Z,12.70
2019-05-25T05:26:55.701Z,12.68
2019-05-25T05:27:50.437Z,12.73
2019-05-25T05:28:49.410Z,12.78
2019-05-25T05:29:49.445Z,12.80
2019-05-25T05:30:49.389Z,12.80
2019-05-25T05:31:49.376Z,12.82
2019-05-25T05:32:49.361Z,12.83
2019-05-25T05:33:49.356Z,12.85
2019-05-25T05:34:49.340Z,12.86
2019-05-25T05:35:49.351Z,12.85
2019-05-25T05:36:49.347Z,12.93
2019-05-25T05:37:49.306Z,12.94
2019-05-25T05:38:49.300Z,13.03
2019-05-25T05:39:49.293Z,13.03
2019-05-25T05:40:49.292Z,13.08
2019-05-25T05:41:49.276Z,13.03
2019-05-25T05:42:49.278Z,13.05
2019-05-25T05:43:49.241Z,13.16
2019-05-25T05:44:49.230Z,13.13
2019-05-25T05:45:49.231Z,13.33
2019-05-25T05:46:49.214Z,13.33
2019-05-25T05:47:49.209Z,13.35
2019-05-25T05:48:49.200Z,13.35
2019-05-25T05:49:49.180Z,13.38
2019-05-25T05:50:49.165Z,13.42
2019-05-25T05:51:49.162Z,13.47
2019-05-25T05:52:49.147Z,13.47
2019-05-25T05:53:49.135Z,13.54
2019-05-25T05:54:49.121Z,13.57
2019-05-25T05:55:49.114Z,13.53
2019-05-25T05:56:49.112Z,13.53
2019-05-25T05:57:49.099Z,13.57
2019-05-25T05:58:49.105Z,13.53
2019-05-25T05:59:49.076Z,13.54
2019-05-25T06:00:49.059Z,13.65
2019-05-25T06:01:49.044Z,13.65
2019-05-25T06:02:49.037Z,13.68
2019-05-25T06:03:49.030Z,13.67
2019-05-25T06:04:49.027Z,13.68
2019-05-25T06:05:49.015Z,13.67
2019-05-25T06:06:48.996Z,13.70
2019-05-25T06:07:48.975Z,13.70
2019-05-25T06:08:48.971Z,13.71
2019-05-25T06:09:48.969Z,13.72
2019-05-25T06:10:48.955Z,13.72
2019-05-25T06:11:48.943Z,13.77
2019-05-25T06:12:48.931Z,13.70
2019-05-25T06:13:48.916Z,13.78
2019-05-25T06:14:48.925Z,13.89
2019-05-25T06:15:48.894Z,13.83
2019-05-25T06:16:48.876Z,13.93
2019-05-25T06:17:48.870Z,13.99
2019-05-25T06:18:48.857Z,14.04
2019-05-25T06:19:48.843Z,14.07
2019-05-25T06:20:48.847Z,14.12
2019-05-25T06:21:48.823Z,13.99
2019-05-25T06:22:48.817Z,14.10
2019-05-25T06:23:48.805Z,13.96
2019-05-25T06:24:48.787Z,13.87
2019-05-25T06:25:48.810Z,13.75
2019-05-25T06:26:48.771Z,13.74
2019-05-25T06:27:48.760Z,13.67
2019-05-25T06:28:48.747Z,13.70
2019-05-25T06:29:48.733Z,13.71
2019-05-25T06:30:48.733Z,13.70
2019-05-25T06:31:48.717Z,13.65
2019-05-25T06:32:48.707Z,13.54
2019-05-25T06:33:48.698Z,13.59
2019-05-25T06:34:48.698Z,13.59
2019-05-25T06:35:48.671Z,13.54
2019-05-25T06:36:48.668Z,13.57
2019-05-25T06:37:48.651Z,13.65
2019-05-25T06:38:48.633Z,13.62
2019-05-25T06:39:48.626Z,13.62
2019-05-25T06:40:48.901Z,13.85
2019-05-25T06:41:48.610Z,13.93
2019-05-25T06:42:48.599Z,13.96
2019-05-25T06:43:48.580Z,14.05
2019-05-25T06:44:48.571Z,14.12
2019-05-25T06:45:48.597Z,14.23
2019-05-25T06:46:48.556Z,14.20
2019-05-25T06:47:48.534Z,14.20
2019-05-25T06:48:48.533Z,14.32
2019-05-25T06:49:48.512Z,14.43
2019-05-25T06:50:48.506Z,14.45
2019-05-25T06:51:48.529Z,14.36
2019-05-25T06:52:48.480Z,14.45
2019-05-25T06:53:48.474Z,14.44
2019-05-25T06:54:48.464Z,14.44
2019-05-25T06:55:48.447Z,14.65
2019-05-25T06:56:48.437Z,14.68
2019-05-25T06:57:48.486Z,14.84
2019-05-25T06:58:48.428Z,14.85
2019-05-25T06:59:48.410Z,14.94
2019-05-25T07:00:48.395Z,14.97
2019-05-25T07:01:48.460Z,14.88
2019-05-25T07:02:48.386Z,15.02
2019-05-25T07:03:48.368Z,15.17
2019-05-25T07:04:48.351Z,15.21
2019-05-25T07:05:48.335Z,15.29
2019-05-25T07:06:48.325Z,15.42
2019-05-25T07:07:48.320Z,15.57
2019-05-25T07:08:48.326Z,15.59
2019-05-25T07:09:48.295Z,15.64
2019-05-25T07:10:48.292Z,15.54
2019-05-25T07:11:48.275Z,15.57
2019-05-25T07:12:48.266Z,15.46
2019-05-25T07:13:48.252Z,15.33
2019-05-25T07:14:48.242Z,15.29
2019-05-25T07:15:48.259Z,15.21
2019-05-25T07:16:48.227Z,15.24
2019-05-25T07:17:48.213Z,15.17
2019-05-25T07:18:48.198Z,15.19
2019-05-25T07:19:48.188Z,15.18
2019-05-25T07:20:48.172Z,15.17
2019-05-25T07:21:48.175Z,15.14
2019-05-25T07:22:48.155Z,15.27
2019-05-25T07:23:48.145Z,15.31
2019-05-25T07:24:48.132Z,15.36
2019-05-25T07:25:48.120Z,15.37
2019-05-25T07:26:48.147Z,15.37
2019-05-25T07:27:58.823Z,15.29
2019-05-25T07:28:49.082Z,15.49
2019-05-25T07:29:48.073Z,15.54
2019-05-25T07:30:48.061Z,15.54
2019-05-25T07:31:48.058Z,15.62
2019-05-25T07:32:48.050Z,15.67
2019-05-25T07:33:48.036Z,15.70
2019-05-25T07:34:48.021Z,15.68
2019-05-25T07:35:48.012Z,15.70
2019-05-25T07:36:47.995Z,15.73
2019-05-25T07:37:47.990Z,15.70
2019-05-25T07:38:47.981Z,15.80
2019-05-25T07:39:47.966Z,15.86
2019-05-25T07:40:48.225Z,15.95
2019-05-25T07:41:47.940Z,16.00
2019-05-25T07:42:47.975Z,15.91
2019-05-25T07:43:47.926Z,15.86
2019-05-25T07:44:47.911Z,15.88
2019-05-25T07:45:47.897Z,15.91
2019-05-25T07:46:47.934Z,15.84
2019-05-25T07:47:47.898Z,15.92
2019-05-25T07:48:50.373Z,15.98
2019-05-25T07:49:47.858Z,16.00
2019-05-25T07:50:47.850Z,15.98
2019-05-25T07:51:47.855Z,16.10
2019-05-25T07:52:47.819Z,16.23
2019-05-25T07:53:47.814Z,16.28
2019-05-25T07:54:47.797Z,16.28
2019-05-25T07:55:47.796Z,16.28
2019-05-25T07:56:47.783Z,16.24
2019-05-25T07:57:47.781Z,16.38
2019-05-25T07:58:47.762Z,16.39
2019-05-25T07:59:47.743Z,16.28
2019-05-25T08:00:47.737Z,16.36
2019-05-25T08:01:47.723Z,16.50
2019-05-25T08:02:47.735Z,16.47
2019-05-25T08:03:47.779Z,16.41
2019-05-25T08:04:47.695Z,16.49
2019-05-25T08:05:47.679Z,16.36
2019-05-25T08:06:47.674Z,16.42
2019-05-25T08:07:47.665Z,16.41
2019-05-25T08:08:47.657Z,16.36
2019-05-25T08:09:47.659Z,16.29
2019-05-25T08:10:47.629Z,16.26
2019-05-25T08:11:47.618Z,16.39
2019-05-25T08:12:47.619Z,16.43
2019-05-25T08:13:47.614Z,16.39
2019-05-25T08:14:47.627Z,16.38
2019-05-25T08:15:47.572Z,16.41
2019-05-25T08:16:47.576Z,16.41
2019-05-25T08:17:47.554Z,16.50
2019-05-25T08:18:47.566Z,16.54
2019-05-25T08:19:47.556Z,16.47
2019-05-25T08:20:47.661Z,16.38
2019-05-25T08:21:47.508Z,16.43
2019-05-25T08:22:47.500Z,16.38
2019-05-25T08:23:47.488Z,16.29
2019-05-25T08:24:47.481Z,16.32
2019-05-25T08:25:47.465Z,16.24
2019-05-25T08:26:47.450Z,16.12
2019-05-25T08:27:47.438Z,16.10
2019-05-25T08:28:47.435Z,15.94
2019-05-25T08:29:47.447Z,16.00
2019-05-25T08:30:47.424Z,15.92
2019-05-25T08:31:47.409Z,15.90
2019-05-25T08:32:47.383Z,15.92
2019-05-25T08:33:47.371Z,15.98
2019-05-25T08:34:47.395Z,16.01
2019-05-25T08:35:47.371Z,15.90
2019-05-25T08:36:47.346Z,15.98
2019-05-25T08:37:47.340Z,16.01
2019-05-25T08:38:47.317Z,15.97
2019-05-25T08:39:47.330Z,16.02
2019-05-25T08:40:47.606Z,16.08
2019-05-25T08:41:47.289Z,16.16
2019-05-25T08:42:47.279Z,16.31
2019-05-25T08:43:47.285Z,16.26
2019-05-25T08:44:47.258Z,16.23
2019-05-25T08:45:47.240Z,16.33
2019-05-25T08:46:47.243Z,16.17
2019-05-25T08:47:47.219Z,16.20
2019-05-25T08:48:47.209Z,15.98
2019-05-25T08:49:47.222Z,15.84
2019-05-25T08:50:47.209Z,15.72
2019-05-25T08:51:47.186Z,15.70
2019-05-25T08:52:47.179Z,15.58
2019-05-25T08:53:47.168Z,15.54
2019-05-25T08:54:47.147Z,15.57
2019-05-25T08:55:47.138Z,15.59
2019-05-25T08:56:47.129Z,15.58
2019-05-25T08:57:47.116Z,15.55
2019-05-25T08:58:48.654Z,15.54
2019-05-25T08:59:47.097Z,15.59
2019-05-25T09:00:47.092Z,15.70
2019-05-25T09:01:47.085Z,15.79
2019-05-25T09:02:47.072Z,15.88
2019-05-25T09:03:47.049Z,15.77
2019-05-25T09:04:47.042Z,16.02
2019-05-25T09:05:47.036Z,15.95
2019-05-25T09:06:47.010Z,16.04
2019-05-25T09:07:47.015Z,15.91
2019-05-25T09:08:47.001Z,15.98
2019-05-25T09:09:46.983Z,16.02
2019-05-25T09:10:46.968Z,16.17
2019-05-25T09:11:46.989Z,16.29
2019-05-25T09:12:46.974Z,16.36
2019-05-25T09:13:46.984Z,16.42
2019-05-25T09:14:46.939Z,16.49
2019-05-25T09:15:46.913Z,16.66
2019-05-25T09:16:46.901Z,16.64
2019-05-25T09:17:46.892Z,16.41
2019-05-25T09:18:46.891Z,16.31
2019-05-25T09:19:46.874Z,16.23
2019-05-25T09:20:46.861Z,16.20
2019-05-25T09:22:01.369Z,16.04
2019-05-25T09:22:47.842Z,16.01
2019-05-25T09:23:48.827Z,15.98
2019-05-25T09:24:46.841Z,16.05
2019-05-25T09:25:46.803Z,16.12
2019-05-25T09:26:46.795Z,16.02
2019-05-25T09:27:46.787Z,16.10
2019-05-25T09:28:46.783Z,16.00
2019-05-25T09:29:46.765Z,16.05
2019-05-25T09:30:46.764Z,16.05
2019-05-25T09:31:46.742Z,15.97
2019-05-25T09:32:46.802Z,15.97
2019-05-25T09:33:46.730Z,15.83
2019-05-25T09:34:46.706Z,15.82
2019-05-25T09:35:46.700Z,15.76
2019-05-25T09:36:46.690Z,15.75
2019-05-25T09:37:46.677Z,15.77
2019-05-25T09:38:46.663Z,15.84
2019-05-25T09:39:46.658Z,15.82
2019-05-25T09:40:46.645Z,16.00
2019-05-25T09:41:46.647Z,16.17
2019-05-25T09:42:46.673Z,16.24
2019-05-25T09:43:46.612Z,16.41
2019-05-25T09:44:46.603Z,16.47
2019-05-25T09:45:46.592Z,16.46
2019-05-25T09:46:46.590Z,16.60
2019-05-25T09:47:46.566Z,16.66
2019-05-25T09:48:46.566Z,16.75
2019-05-25T09:49:46.548Z,16.71
2019-05-25T09:50:46.536Z,16.69
2019-05-25T09:51:48.629Z,16.56
2019-05-25T09:52:46.523Z,16.51
2019-05-25T09:53:46.498Z,16.46
2019-05-25T09:54:46.497Z,16.36
2019-05-25T09:55:46.481Z,16.35
2019-05-25T09:56:46.467Z,16.36
2019-05-25T09:57:46.469Z,16.38
2019-05-25T09:58:46.465Z,16.36
2019-05-25T09:59:46.433Z,16.32
2019-05-25T10:00:46.426Z,16.23
2019-05-25T10:01:46.419Z,16.47
2019-05-25T10:02:46.740Z,16.38
2019-05-25T10:03:46.398Z,16.42
2019-05-25T10:04:46.413Z,16.39
2019-05-25T10:05:46.371Z,16.43
2019-05-25T10:06:46.378Z,16.50
2019-05-25T10:07:46.351Z,16.57
2019-05-25T10:08:46.342Z,16.54
2019-05-25T10:09:46.331Z,16.54
2019-05-25T10:10:46.310Z,16.68
2019-05-25T10:11:46.311Z,17.09
2019-05-25T10:12:46.326Z,17.36
2019-05-25T10:13:46.291Z,17.56
2019-05-25T10:14:46.292Z,17.51
2019-05-25T10:15:46.267Z,17.59
2019-05-25T10:16:46.251Z,17.63
2019-05-25T10:17:46.251Z,17.70
2019-05-25T10:18:46.222Z,17.71
2019-05-25T10:19:46.211Z,17.79
2019-05-25T10:20:46.210Z,17.65
2019-05-25T10:21:46.189Z,17.48
2019-05-25T10:22:46.195Z,17.42
2019-05-25T10:23:46.177Z,17.14
2019-05-25T10:24:46.165Z,17.08
2019-05-25T10:25:46.161Z,17.06
2019-05-25T10:26:46.136Z,17.01
2019-05-25T10:27:46.141Z,17.09
2019-05-25T10:28:46.117Z,17.08
2019-05-25T10:29:46.102Z,17.15
2019-05-25T10:30:46.099Z,17.27
2019-05-25T10:31:46.086Z,17.26
2019-05-25T10:32:46.074Z,17.24
2019-05-25T10:33:46.059Z,17.19
2019-05-25T10:34:46.055Z,17.15
2019-05-25T10:35:46.066Z,17.06
2019-05-25T10:36:46.041Z,16.97
2019-05-25T10:37:46.030Z,16.94
2019-05-25T10:38:46.003Z,16.76
2019-05-25T10:39:45.997Z,16.76
2019-05-25T10:40:46.003Z,16.72
2019-05-25T10:41:45.979Z,16.72
2019-05-25T10:42:45.973Z,16.65
2019-05-25T10:43:45.947Z,16.69
2019-05-25T10:44:45.947Z,16.64
2019-05-25T10:45:45.937Z,16.71
2019-05-25T10:46:45.929Z,16.83
2019-05-25T10:47:45.906Z,16.79
2019-05-25T10:48:45.940Z,16.90
2019-05-25T10:49:45.880Z,16.90
2019-05-25T10:50:45.869Z,16.90
2019-05-25T10:51:45.875Z,16.93
2019-05-25T10:52:45.846Z,17.09
2019-05-25T10:53:45.841Z,17.23
2019-05-25T10:54:45.847Z,17.14
2019-05-25T10:55:45.819Z,17.27
2019-05-25T10:56:45.802Z,17.46
2019-05-25T10:57:45.811Z,17.46
2019-05-25T10:58:45.787Z,17.70
2019-05-25T10:59:53.130Z,17.89
2019-05-25T11:00:46.765Z,18.03
2019-05-25T11:01:45.770Z,18.15
2019-05-25T11:02:45.761Z,18.23
2019-05-25T11:03:45.744Z,18.25
2019-05-25T11:04:45.715Z,18.43
2019-05-25T11:05:45.705Z,18.41
2019-05-25T11:06:45.692Z,18.37
2019-05-25T11:07:45.687Z,18.25
2019-05-25T11:08:45.708Z,18.19
2019-05-25T11:09:45.679Z,18.19
2019-05-25T11:10:45.678Z,18.13
2019-05-25T11:11:45.644Z,18.07
2019-05-25T11:12:45.636Z,18.08
2019-05-25T11:13:45.626Z,18.08
2019-05-25T11:14:45.608Z,18.23
2019-05-25T11:15:45.605Z,18.29
2019-05-25T11:16:45.604Z,18.29
2019-05-25T11:17:45.581Z,18.38
2019-05-25T11:18:45.577Z,18.25
2019-05-25T11:19:45.554Z,18.10
2019-05-25T11:20:45.555Z,18.04
2019-05-25T11:21:45.539Z,17.97
2019-05-25T11:22:45.528Z,17.87
2019-05-25T11:23:45.536Z,17.97
2019-05-25T11:24:45.569Z,18.05
2019-05-25T11:25:45.505Z,18.04
2019-05-25T11:26:45.503Z,18.04
2019-05-25T11:27:45.474Z,18.00
2019-05-25T11:28:45.466Z,17.86
2019-05-25T11:29:45.452Z,17.79
2019-05-25T11:30:45.438Z,17.64
2019-05-25T11:31:54.277Z,17.64
2019-05-25T11:32:46.419Z,17.59
2019-05-25T11:33:45.414Z,17.51
2019-05-25T11:34:45.399Z,17.57
2019-05-25T11:35:45.386Z,17.51
2019-05-25T11:36:45.380Z,17.39
2019-05-25T11:37:45.365Z,17.52
2019-05-25T11:38:45.348Z,17.41
2019-05-25T11:39:45.364Z,17.60
2019-05-25T11:40:45.329Z,17.65
2019-05-25T11:41:45.316Z,17.78
2019-05-25T11:42:45.317Z,17.79
2019-05-25T11:43:45.302Z,17.56
2019-05-25T11:44:45.293Z,17.67
2019-05-25T11:45:45.599Z,17.74
2019-05-25T11:46:45.268Z,17.72
2019-05-25T11:47:45.259Z,17.76
2019-05-25T11:48:45.247Z,17.95
2019-05-25T11:49:45.233Z,18.00
2019-05-25T11:50:45.221Z,18.20
2019-05-25T11:51:45.213Z,18.65
2019-05-25T11:52:45.551Z,18.99
2019-05-25T11:53:45.188Z,19.18
2019-05-25T11:54:45.187Z,19.21
2019-05-25T11:55:45.161Z,19.04
2019-05-25T11:56:45.154Z,18.92
2019-05-25T11:57:45.152Z,18.78
2019-05-25T11:58:47.725Z,18.55
2019-05-25T11:59:45.116Z,18.60
2019-05-25T12:00:45.119Z,18.84
2019-05-25T12:01:45.094Z,18.78
2019-05-25T12:02:45.112Z,18.77
2019-05-25T12:03:45.073Z,18.78
2019-05-25T12:04:45.074Z,18.73
2019-05-25T12:05:45.067Z,18.60
2019-05-25T12:06:45.043Z,18.63
2019-05-25T12:07:45.246Z,18.80
2019-05-25T12:08:45.023Z,19.58
2019-05-25T12:09:45.023Z,19.95
2019-05-25T12:10:45.002Z,19.79
2019-05-25T12:11:44.994Z,19.66
2019-05-25T12:12:44.977Z,19.58
2019-05-25T12:13:44.966Z,19.29
2019-05-25T12:14:44.987Z,19.18
2019-05-25T12:15:44.957Z,19.36
2019-05-25T12:16:44.936Z,19.36
2019-05-25T12:17:44.924Z,19.30
2019-05-25T12:18:44.912Z,19.02
2019-05-25T12:19:44.905Z,18.86
2019-05-25T12:20:44.901Z,18.71
2019-05-25T12:21:44.891Z,18.50
2019-05-25T12:22:44.900Z,18.49
2019-05-25T12:23:44.860Z,18.52
2019-05-25T12:24:44.849Z,18.53
2019-05-25T12:25:44.859Z,18.47
2019-05-25T12:26:44.826Z,18.37
2019-05-25T12:27:48.752Z,18.44
2019-05-25T12:28:44.801Z,18.40
2019-05-25T12:29:44.788Z,18.28
2019-05-25T12:30:44.783Z,18.38
2019-05-25T12:31:44.784Z,18.33
2019-05-25T12:32:44.757Z,18.20
2019-05-25T12:33:44.747Z,18.19
2019-05-25T12:34:44.736Z,18.20
2019-05-25T12:35:45.339Z,18.19
2019-05-25T12:36:44.738Z,18.04
2019-05-25T12:37:44.709Z,17.86
2019-05-25T12:38:44.706Z,17.71
2019-05-25T12:39:44.687Z,17.54
2019-05-25T12:40:53.177Z,17.64
2019-05-25T12:41:45.681Z,17.83
2019-05-25T12:42:45.949Z,17.78
2019-05-25T12:43:44.650Z,17.83
2019-05-25T12:44:44.641Z,17.82
2019-05-25T12:45:44.621Z,17.83
2019-05-25T12:46:44.605Z,17.86
2019-05-25T12:47:44.599Z,18.01
2019-05-25T12:48:44.589Z,17.97
2019-05-25T12:49:50.650Z,17.94
2019-05-25T12:50:45.560Z,17.86
2019-05-25T12:51:44.566Z,17.90
2019-05-25T12:52:44.539Z,17.97